createdAt,value
2018-09-14T00:00:38.488Z,15.10
2018-09-14T00:03:07.415Z,15.10
2018-09-14T00:05:35.579Z,15.10
2018-09-14T00:08:04.560Z,15.00
2018-09-14T00:10:32.764Z,15.10
2018-09-14T00:13:01.117Z,15.00
2018-09-14T00:15:29.536Z,15.00
2018-09-14T00:17:57.969Z,15.00
2018-09-14T00:20:26.434Z,15.00
2018-09-14T00:22:54.933Z,15.00
2018-09-14T00:25:23.328Z,15.00
2018-09-14T00:27:51.873Z,15.00
2018-09-14T00:30:20.671Z,15.00
2018-09-14T00:32:49.213Z,15.00
2018-09-14T00:35:17.654Z,15.00
2018-09-14T00:37:46.080Z,14.90
2018-09-14T00:40:14.670Z,14.90
2018-09-14T00:42:43.191Z,14.90
2018-09-14T00:45:12.502Z,14.90
2018-09-14T00:47:40.984Z,14.90
2018-09-14T00:50:09.867Z,14.80
2018-09-14T00:52:38.292Z,14.80
2018-09-14T00:55:06.763Z,14.80
2018-09-14T00:57:35.263Z,14.80
2018-09-14T01:00:03.899Z,14.80
2018-09-14T01:02:32.446Z,14.80
2018-09-14T01:05:00.933Z,14.80
2018-09-14T01:07:29.309Z,14.70
2018-09-14T01:09:57.784Z,14.70
2018-09-14T01:12:26.245Z,14.60
2018-09-14T01:14:54.660Z,14.60
2018-09-14T01:17:23.207Z,14.50
2018-09-14T01:19:51.590Z,14.50
2018-09-14T01:22:20.100Z,14.40
2018-09-14T01:24:48.511Z,14.40
2018-09-14T01:27:17.042Z,14.40
2018-09-14T01:29:45.410Z,14.40
2018-09-14T01:32:13.873Z,14.40
2018-09-14T01:34:42.405Z,14.40
2018-09-14T01:37:10.873Z,14.30
2018-09-14T01:39:39.264Z,14.30
2018-09-14T01:42:07.809Z,14.30
2018-09-14T01:44:36.257Z,14.40
2018-09-14T01:47:04.727Z,14.30
2018-09-14T01:49:33.192Z,14.30
2018-09-14T01:52:01.686Z,14.30
2018-09-14T01:54:30.191Z,14.20
2018-09-14T01:56:58.732Z,14.20
2018-09-14T01:59:27.226Z,14.20
2018-09-14T02:01:55.669Z,14.20
2018-09-14T02:04:24.111Z,14.20
2018-09-14T02:06:52.584Z,14.20
2018-09-14T02:09:20.946Z,14.30
2018-09-14T02:11:49.456Z,14.30
2018-09-14T02:14:17.917Z,14.30
2018-09-14T02:16:46.433Z,14.30
2018-09-14T02:19:14.856Z,14.40
2018-09-14T02:21:43.320Z,14.30
2018-09-14T02:24:11.822Z,14.30
2018-09-14T02:26:40.247Z,14.30
2018-09-14T02:29:08.665Z,14.20
2018-09-14T02:31:37.065Z,14.20
2018-09-14T02:34:05.515Z,14.20
2018-09-14T02:36:33.984Z,14.10
2018-09-14T02:39:02.600Z,14.10
2018-09-14T02:41:31.041Z,14.10
2018-09-14T02:43:59.428Z,14.10
2018-09-14T02:46:27.756Z,14.10
2018-09-14T02:48:56.426Z,14.10
2018-09-14T02:51:24.795Z,14.10
2018-09-14T02:53:53.233Z,14.00
2018-09-14T02:56:21.811Z,14.00
2018-09-14T02:58:50.324Z,14.00
2018-09-14T03:01:18.684Z,13.90
2018-09-14T03:03:47.068Z,13.90
2018-09-14T03:06:15.540Z,13.80
2018-09-14T03:08:44.021Z,13.80
2018-09-14T03:11:12.412Z,13.80
2018-09-14T03:13:41.002Z,13.90
2018-09-14T03:16:09.429Z,14.00
2018-09-14T03:18:37.768Z,14.00
2018-09-14T03:21:06.225Z,14.10
2018-09-14T03:23:34.741Z,14.00
2018-09-14T03:26:03.209Z,14.00
2018-09-14T03:28:31.553Z,13.90
2018-09-14T03:30:59.968Z,13.90
2018-09-14T03:33:28.380Z,13.80
2018-09-14T03:35:56.821Z,13.80
2018-09-14T03:38:25.292Z,13.80
2018-09-14T03:40:53.822Z,13.80
2018-09-14T03:43:22.374Z,13.80
2018-09-14T03:45:51.185Z,13.70
2018-09-14T03:48:19.742Z,13.70
2018-09-14T03:50:48.606Z,13.70
2018-09-14T03:53:17.000Z,13.70
2018-09-14T03:55:45.692Z,13.70
2018-09-14T03:58:14.177Z,13.70
2018-09-14T04:00:42.648Z,13.70
2018-09-14T04:03:11.130Z,13.70
2018-09-14T04:05:39.649Z,13.70
2018-09-14T04:08:08.120Z,13.70
2018-09-14T04:10:36.619Z,13.70
2018-09-14T04:13:05.040Z,13.70
2018-09-14T04:15:33.453Z,13.60
2018-09-14T04:18:01.936Z,13.60
2018-09-14T04:20:30.447Z,13.60
2018-09-14T04:22:58.853Z,13.50
2018-09-14T04:25:27.268Z,13.50
2018-09-14T04:27:55.641Z,13.40
2018-09-14T04:30:24.139Z,13.40
2018-09-14T04:32:52.497Z,13.40
2018-09-14T04:35:21.013Z,13.40
2018-09-14T04:37:49.521Z,13.30
2018-09-14T04:40:17.964Z,13.30
2018-09-14T04:42:46.728Z,13.30
2018-09-14T04:45:15.145Z,13.30
2018-09-14T04:47:43.626Z,13.30
2018-09-14T04:50:12.069Z,13.30
2018-09-14T04:52:40.543Z,13.30
2018-09-14T04:55:11.616Z,13.30
2018-09-14T04:57:40.097Z,13.30
2018-09-14T05:00:09.421Z,13.30
2018-09-14T05:02:37.841Z,13.30
2018-09-14T05:05:06.649Z,13.40
2018-09-14T05:07:35.097Z,13.40
2018-09-14T05:10:03.555Z,13.40
2018-09-14T05:12:31.912Z,13.40
2018-09-14T05:15:00.470Z,13.40
2018-09-14T05:17:28.933Z,13.40
2018-09-14T05:19:57.455Z,13.40
2018-09-14T05:22:25.893Z,13.40
2018-09-14T05:24:54.301Z,13.30
2018-09-14T05:27:22.782Z,13.30
2018-09-14T05:29:51.264Z,13.30
2018-09-14T05:32:19.830Z,13.30
2018-09-14T05:34:48.242Z,13.30
2018-09-14T05:37:16.758Z,13.30
2018-09-14T05:39:45.156Z,13.30
2018-09-14T05:42:13.552Z,13.30
2018-09-14T05:44:41.937Z,13.30
2018-09-14T05:47:10.388Z,13.30
2018-09-14T05:49:38.804Z,13.40
2018-09-14T05:52:07.244Z,13.40
2018-09-14T05:54:36.103Z,13.50
2018-09-14T05:57:04.727Z,13.50
2018-09-14T05:59:33.335Z,13.50
2018-09-14T06:02:01.985Z,13.50
2018-09-14T06:04:30.477Z,13.50
2018-09-14T06:06:58.879Z,13.60
2018-09-14T06:09:27.385Z,13.60
2018-09-14T06:11:55.808Z,13.70
2018-09-14T06:14:27.651Z,13.70
2018-09-14T06:16:56.395Z,13.70
2018-09-14T06:19:24.780Z,13.80
2018-09-14T06:21:53.247Z,13.70
2018-09-14T06:24:21.648Z,13.80
2018-09-14T06:26:50.141Z,13.70
2018-09-14T06:29:18.536Z,13.80
2018-09-14T06:31:46.961Z,13.80
2018-09-14T06:34:15.410Z,13.90
2018-09-14T06:36:43.952Z,13.90
2018-09-14T06:39:12.985Z,14.00
2018-09-14T06:41:41.420Z,14.10
2018-09-14T06:44:10.295Z,14.10
2018-09-14T06:46:39.021Z,14.10
2018-09-14T06:49:07.661Z,14.20
2018-09-14T06:51:37.600Z,14.20
2018-09-14T06:54:06.064Z,14.30
2018-09-14T06:56:34.589Z,14.30
2018-09-14T06:59:03.144Z,14.30
2018-09-14T07:01:31.585Z,14.40
2018-09-14T07:04:00.479Z,14.40
2018-09-14T07:06:29.054Z,14.40
2018-09-14T07:08:57.539Z,14.50
2018-09-14T07:11:26.017Z,14.50
2018-09-14T07:13:54.578Z,14.50
2018-09-14T07:16:23.044Z,14.50
2018-09-14T07:18:51.458Z,14.60
2018-09-14T07:21:19.868Z,14.60
2018-09-14T07:23:48.413Z,14.60
2018-09-14T07:26:16.911Z,14.70
2018-09-14T07:28:45.382Z,14.70
2018-09-14T07:31:14.041Z,14.80
2018-09-14T07:33:42.588Z,14.80
2018-09-14T07:36:11.208Z,14.90
2018-09-14T07:38:39.678Z,14.90
2018-09-14T07:41:08.251Z,14.90
2018-09-14T07:43:36.765Z,15.00
2018-09-14T07:46:05.279Z,15.00
2018-09-14T07:48:33.693Z,15.10
2018-09-14T07:51:02.197Z,15.10
2018-09-14T07:53:30.746Z,15.10
2018-09-14T07:55:59.356Z,15.20
2018-09-14T07:58:27.721Z,15.20
2018-09-14T08:00:56.164Z,15.20
2018-09-14T08:03:24.617Z,15.30
2018-09-14T08:05:53.086Z,15.30
2018-09-14T08:08:21.577Z,15.30
2018-09-14T08:10:50.055Z,15.40
2018-09-14T08:13:18.749Z,15.40
2018-09-14T08:15:47.503Z,15.50
2018-09-14T08:18:15.958Z,15.50
2018-09-14T08:20:44.436Z,15.50
2018-09-14T08:23:12.857Z,15.60
2018-09-14T08:25:41.264Z,15.60
2018-09-14T08:28:10.289Z,15.70
2018-09-14T08:30:38.748Z,15.80
2018-09-14T08:33:07.560Z,15.80
2018-09-14T08:35:36.093Z,15.80
2018-09-14T08:38:04.600Z,15.90
2018-09-14T08:40:33.093Z,15.90
2018-09-14T08:43:01.616Z,15.90
2018-09-14T08:45:30.064Z,16.00
2018-09-14T08:47:58.586Z,16.00
2018-09-14T08:50:26.936Z,16.00
2018-09-14T08:52:56.381Z,16.10
2018-09-14T08:55:24.957Z,16.10
2018-09-14T08:57:53.432Z,16.20
2018-09-14T09:00:23.662Z,16.20
2018-09-14T09:02:53.082Z,16.30
2018-09-14T09:05:21.748Z,16.40
2018-09-14T09:07:50.485Z,16.40
2018-09-14T09:10:19.036Z,16.40
2018-09-14T09:12:47.800Z,16.60
2018-09-14T09:15:16.251Z,16.60
2018-09-14T09:17:44.801Z,16.80
2018-09-14T09:20:13.662Z,16.80
2018-09-14T09:22:42.089Z,16.90
2018-09-14T09:25:10.493Z,16.90
2018-09-14T09:27:39.987Z,16.90
2018-09-14T09:30:08.496Z,17.00
2018-09-14T09:32:36.965Z,17.00
2018-09-14T09:35:05.648Z,17.00
2018-09-14T09:37:34.213Z,17.10
2018-09-14T09:40:02.688Z,17.20
2018-09-14T09:42:31.240Z,17.30
2018-09-14T09:44:59.641Z,17.40
2018-09-14T09:47:28.056Z,17.50
2018-09-14T09:49:56.597Z,17.60
2018-09-14T09:52:25.088Z,17.60
2018-09-14T09:54:53.550Z,17.70
2018-09-14T09:57:22.147Z,17.70
2018-09-14T09:59:50.594Z,17.80
2018-09-14T10:02:24.664Z,18.00
2018-09-14T10:05:05.532Z,18.00
2018-09-14T10:07:36.256Z,18.10
2018-09-14T10:10:04.814Z,18.20
2018-09-14T10:12:33.311Z,18.30
2018-09-14T10:15:01.988Z,18.40
2018-09-14T10:17:30.371Z,18.60
2018-09-14T10:19:58.822Z,18.70
2018-09-14T10:22:27.269Z,18.90
2018-09-14T10:24:55.861Z,19.00
2018-09-14T10:27:24.319Z,19.00
2018-09-14T10:30:02.770Z,19.20
2018-09-14T10:32:31.215Z,19.20
2018-09-14T10:35:00.784Z,19.30
2018-09-14T10:37:29.374Z,19.40
2018-09-14T10:39:57.904Z,19.50
2018-09-14T10:42:26.513Z,19.60
2018-09-14T10:44:55.034Z,19.60
2018-09-14T10:47:23.580Z,19.80
2018-09-14T10:49:52.098Z,19.90
2018-09-14T10:52:20.605Z,20.00
2018-09-14T10:54:49.190Z,20.00
2018-09-14T10:57:17.568Z,20.10
2018-09-14T10:59:46.296Z,20.20
2018-09-14T11:02:14.873Z,20.30
2018-09-14T11:04:43.482Z,20.40
2018-09-14T11:07:12.017Z,20.50
2018-09-14T11:09:40.538Z,20.60
2018-09-14T11:12:09.104Z,20.70
2018-09-14T11:14:37.680Z,20.90
2018-09-14T11:17:11.071Z,21.10
2018-09-14T11:19:40.266Z,21.20
2018-09-14T11:22:08.973Z,21.40
2018-09-14T11:24:37.447Z,21.60
2018-09-14T11:27:06.306Z,21.70
2018-09-14T11:29:34.889Z,21.80
2018-09-14T11:32:03.442Z,21.80
2018-09-14T11:34:31.971Z,21.90
2018-09-14T11:37:01.179Z,22.00
2018-09-14T11:39:29.624Z,22.10
2018-09-14T11:41:59.955Z,22.10
2018-09-14T11:44:28.445Z,22.30
2018-09-14T11:46:57.036Z,22.40
2018-09-14T11:49:25.662Z,22.50
2018-09-14T11:51:54.982Z,22.60
2018-09-14T11:54:23.538Z,22.60
2018-09-14T11:56:52.081Z,22.70
2018-09-14T11:59:20.485Z,22.70
2018-09-14T12:01:48.905Z,22.70
2018-09-14T12:04:17.439Z,22.80
2018-09-14T12:06:45.802Z,22.90
2018-09-14T12:09:14.327Z,23.00
2018-09-14T12:11:42.848Z,23.00
2018-09-14T12:14:11.445Z,23.20
2018-09-14T12:16:39.988Z,23.20
2018-09-14T12:19:08.528Z,23.30
2018-09-14T12:21:37.089Z,23.20
2018-09-14T12:24:05.571Z,23.10
2018-09-14T12:26:34.228Z,23.00
2018-09-14T12:29:02.968Z,22.90
2018-09-14T12:31:31.541Z,22.80
2018-09-14T12:34:00.223Z,22.80
2018-09-14T12:36:29.378Z,22.70
2018-09-14T12:38:58.706Z,22.50
2018-09-14T12:41:27.247Z,22.60
2018-09-14T12:43:55.854Z,22.70
2018-09-14T12:46:31.856Z,22.80
2018-09-14T12:49:13.000Z,22.90
2018-09-14T12:51:44.816Z,23.00
2018-09-14T12:54:13.359Z,23.20
2018-09-14T12:56:42.328Z,23.20
2018-09-14T12:59:10.860Z,23.00
2018-09-14T13:01:39.329Z,22.90
2018-09-14T13:04:07.839Z,22.70
2018-09-14T13:06:36.209Z,22.50
2018-09-14T13:09:08.077Z,22.40
2018-09-14T13:11:36.533Z,22.30
2018-09-14T13:14:05.119Z,22.30
2018-09-14T13:16:33.537Z,22.30
2018-09-14T13:19:01.908Z,22.20
2018-09-14T13:21:30.332Z,22.30
2018-09-14T13:23:58.825Z,22.50
2018-09-14T13:26:27.272Z,22.60
2018-09-14T13:28:55.781Z,22.60
2018-09-14T13:31:24.411Z,22.60
2018-09-14T13:33:58.193Z,22.60
2018-09-14T13:36:26.683Z,22.60
2018-09-14T13:38:55.086Z,22.60
2018-09-14T13:41:23.522Z,22.70
2018-09-14T13:44:05.309Z,22.90
2018-09-14T13:46:42.706Z,23.00
2018-09-14T13:49:25.661Z,23.10
2018-09-14T13:51:57.504Z,23.20
2018-09-14T13:54:27.235Z,23.00
2018-09-14T13:56:59.538Z,23.00
2018-09-14T13:59:28.071Z,22.90
2018-09-14T14:01:56.612Z,22.80
2018-09-14T14:04:28.759Z,22.70
2018-09-14T14:06:57.377Z,22.60
2018-09-14T14:09:25.905Z,22.60
2018-09-14T14:11:54.301Z,22.50
2018-09-14T14:14:24.371Z,22.40
2018-09-14T14:16:52.949Z,22.30
2018-09-14T14:19:26.281Z,22.20
2018-09-14T14:21:54.870Z,22.10
2018-09-14T14:24:24.047Z,22.00
2018-09-14T14:26:53.868Z,22.00
2018-09-14T14:29:22.345Z,22.00
2018-09-14T14:31:52.162Z,21.90
2018-09-14T14:34:20.666Z,21.90
2018-09-14T14:36:49.176Z,21.90
2018-09-14T14:39:17.666Z,21.90
2018-09-14T14:41:46.435Z,21.90
2018-09-14T14:44:14.829Z,22.00
2018-09-14T14:46:43.303Z,22.00
2018-09-14T14:49:12.144Z,21.90
2018-09-14T14:51:40.686Z,21.90
2018-09-14T14:54:09.212Z,21.80
2018-09-14T14:56:37.634Z,21.70
2018-09-14T14:59:06.516Z,21.60
2018-09-14T15:01:35.160Z,21.60
2018-09-14T15:04:03.782Z,21.50
2018-09-14T15:06:32.562Z,21.50
2018-09-14T15:09:01.454Z,21.50
2018-09-14T15:11:29.991Z,21.50
2018-09-14T15:13:58.492Z,21.50
2018-09-14T15:16:27.322Z,21.50
2018-09-14T15:18:55.778Z,21.50
2018-09-14T15:21:24.255Z,21.50
2018-09-14T15:23:53.025Z,21.40
2018-09-14T15:26:21.518Z,21.50
2018-09-14T15:28:50.054Z,21.50
2018-09-14T15:31:18.572Z,21.50
2018-09-14T15:33:47.085Z,21.50
2018-09-14T15:36:15.534Z,21.40
2018-09-14T15:38:44.077Z,21.40
2018-09-14T15:41:12.661Z,21.30
2018-09-14T15:43:41.176Z,21.30
2018-09-14T15:46:09.697Z,21.30
2018-09-14T15:48:38.376Z,21.10
2018-09-14T15:51:06.872Z,21.10
2018-09-14T15:53:35.286Z,21.10
2018-09-14T15:56:03.731Z,21.10
2018-09-14T15:58:32.242Z,21.10
2018-09-14T16:01:00.648Z,21.20
2018-09-14T16:03:29.064Z,21.20
2018-09-14T16:05:57.545Z,21.20
2018-09-14T16:08:26.052Z,21.20
2018-09-14T16:10:54.556Z,21.10
2018-09-14T16:13:23.100Z,21.20
2018-09-14T16:15:51.770Z,21.10
2018-09-14T16:18:20.245Z,21.00
2018-09-14T16:20:48.920Z,21.00
2018-09-14T16:23:17.351Z,21.00
2018-09-14T16:25:45.745Z,20.90
2018-09-14T16:28:14.337Z,20.90
2018-09-14T16:30:43.512Z,20.90
2018-09-14T16:33:12.058Z,20.80
2018-09-14T16:35:40.500Z,20.80
2018-09-14T16:38:08.988Z,20.80
2018-09-14T16:40:37.708Z,20.80
2018-09-14T16:43:06.410Z,20.80
2018-09-14T16:45:35.795Z,20.90
2018-09-14T16:48:04.981Z,20.80
2018-09-14T16:50:33.474Z,20.80
2018-09-14T16:53:03.468Z,20.80
2018-09-14T16:55:32.245Z,20.80
2018-09-14T16:58:07.754Z,20.70
2018-09-14T17:00:36.404Z,20.70
2018-09-14T17:03:04.901Z,20.70
2018-09-14T17:05:33.391Z,20.60
2018-09-14T17:08:01.886Z,20.60
2018-09-14T17:10:30.536Z,20.60
2018-09-14T17:13:00.195Z,20.60
2018-09-14T17:15:29.497Z,20.60
2018-09-14T17:17:57.962Z,20.50
2018-09-14T17:20:26.672Z,20.50
2018-09-14T17:22:55.156Z,20.50
2018-09-14T17:25:23.678Z,20.40
2018-09-14T17:27:52.312Z,20.40
2018-09-14T17:30:21.015Z,20.40
2018-09-14T17:32:49.545Z,20.30
2018-09-14T17:35:19.145Z,20.30
2018-09-14T17:37:54.558Z,20.30
2018-09-14T17:40:23.233Z,20.30
2018-09-14T17:42:51.676Z,20.20
2018-09-14T17:45:20.212Z,20.20
2018-09-14T17:47:50.794Z,20.20
2018-09-14T17:50:19.845Z,20.20
2018-09-14T17:52:48.344Z,20.10
2018-09-14T17:55:16.831Z,20.10
2018-09-14T17:57:45.321Z,20.10
2018-09-14T18:00:25.277Z,20.00
2018-09-14T18:02:55.175Z,20.00
2018-09-14T18:05:23.659Z,20.00
2018-09-14T18:07:52.160Z,20.00
2018-09-14T18:10:20.854Z,20.00
2018-09-14T18:12:52.811Z,20.00
2018-09-14T18:15:21.148Z,19.90
2018-09-14T18:17:54.006Z,19.90
2018-09-14T18:20:22.502Z,19.90
2018-09-14T18:22:51.068Z,19.90
2018-09-14T18:25:19.480Z,19.90
2018-09-14T18:27:47.944Z,19.80
2018-09-14T18:30:20.332Z,19.80
2018-09-14T18:32:48.830Z,19.80
2018-09-14T18:35:17.256Z,19.80
2018-09-14T18:37:45.820Z,19.80
2018-09-14T18:40:14.532Z,19.70
2018-09-14T18:42:42.950Z,19.70
2018-09-14T18:45:11.464Z,19.70
2018-09-14T18:47:39.939Z,19.70
2018-09-14T18:50:08.368Z,19.70
2018-09-14T18:52:36.854Z,19.70
2018-09-14T18:55:05.931Z,19.70
2018-09-14T18:57:34.466Z,19.70
2018-09-14T19:00:02.966Z,19.70
2018-09-14T19:02:31.449Z,19.60
2018-09-14T19:05:00.003Z,19.60
2018-09-14T19:07:28.464Z,19.60
2018-09-14T19:09:57.325Z,19.50
2018-09-14T19:12:26.314Z,19.50
2018-09-14T19:14:54.975Z,19.50
2018-09-14T19:17:23.364Z,19.50
2018-09-14T19:19:51.826Z,19.50
2018-09-14T19:22:20.514Z,19.50
2018-09-14T19:24:49.036Z,19.50
2018-09-14T19:27:17.605Z,19.40
2018-09-14T19:29:46.153Z,19.40
2018-09-14T19:32:14.772Z,19.40
2018-09-14T19:34:43.220Z,19.40
2018-09-14T19:37:11.665Z,19.40
2018-09-14T19:39:40.174Z,19.30
2018-09-14T19:42:08.625Z,19.30
2018-09-14T19:44:37.108Z,19.30
2018-09-14T19:47:05.529Z,19.30
2018-09-14T19:49:34.179Z,19.30
2018-09-14T19:52:02.699Z,19.30
2018-09-14T19:54:31.166Z,19.30
2018-09-14T19:57:00.754Z,19.20
2018-09-14T19:59:29.396Z,19.20
2018-09-14T20:01:58.622Z,19.20
2018-09-14T20:04:27.225Z,19.20
2018-09-14T20:06:56.106Z,19.20
2018-09-14T20:09:24.688Z,19.20
2018-09-14T20:11:53.198Z,19.20
2018-09-14T20:14:21.749Z,19.20
2018-09-14T20:16:50.230Z,19.20
2018-09-14T20:19:18.729Z,19.20
2018-09-14T20:21:47.214Z,19.20
2018-09-14T20:24:15.717Z,19.10
2018-09-14T20:26:44.157Z,19.10
2018-09-14T20:29:12.618Z,19.10
2018-09-14T20:31:41.114Z,19.10
2018-09-14T20:34:09.686Z,19.10
2018-09-14T20:36:38.208Z,19.10
2018-09-14T20:39:09.697Z,19.10
2018-09-14T20:41:38.140Z,19.00
2018-09-14T20:44:06.742Z,19.00
2018-09-14T20:46:35.207Z,19.00
2018-09-14T20:49:03.698Z,19.00
2018-09-14T20:51:32.343Z,19.00
2018-09-14T20:54:00.850Z,19.00
2018-09-14T20:56:29.310Z,19.00
2018-09-14T20:58:57.818Z,19.00
2018-09-14T21:01:26.384Z,18.90
2018-09-14T21:03:54.970Z,18.90
2018-09-14T21:06:23.345Z,18.90
2018-09-14T21:08:51.833Z,18.90
2018-09-14T21:11:20.244Z,18.90
2018-09-14T21:13:48.713Z,18.90
2018-09-14T21:16:17.450Z,18.90
2018-09-14T21:18:45.953Z,18.90
2018-09-14T21:21:14.443Z,18.80
2018-09-14T21:23:42.804Z,18.80
2018-09-14T21:26:11.193Z,18.80
2018-09-14T21:28:39.740Z,18.80
2018-09-14T21:31:11.236Z,18.70
2018-09-14T21:33:39.759Z,18.70
2018-09-14T21:36:09.181Z,18.70
2018-09-14T21:38:37.765Z,18.70
2018-09-14T21:41:06.164Z,18.70
2018-09-14T21:43:35.601Z,18.70
2018-09-14T21:46:04.058Z,18.70
2018-09-14T21:48:32.481Z,18.60
2018-09-14T21:51:00.981Z,18.60
2018-09-14T21:53:29.416Z,18.60
2018-09-14T21:55:57.917Z,18.60
2018-09-14T21:58:26.685Z,18.50
2018-09-14T22:01:00.569Z,18.50
2018-09-14T22:03:28.939Z,18.50
2018-09-14T22:05:57.305Z,18.50
2018-09-14T22:08:26.034Z,18.50
2018-09-14T22:10:54.420Z,18.40
2018-09-14T22:13:22.899Z,18.40
2018-09-14T22:15:51.364Z,18.40
2018-09-14T22:18:19.869Z,18.40
2018-09-14T22:20:48.292Z,18.40
2018-09-14T22:23:16.977Z,18.40
2018-09-14T22:25:45.653Z,18.40
2018-09-14T22:28:14.070Z,18.30
2018-09-14T22:30:42.498Z,18.30
2018-09-14T22:33:11.024Z,18.30
2018-09-14T22:35:40.125Z,18.30
2018-09-14T22:38:08.720Z,18.30
2018-09-14T22:40:37.221Z,18.30
2018-09-14T22:43:05.616Z,18.30
2018-09-14T22:45:34.083Z,18.30
2018-09-14T22:48:02.561Z,18.30
2018-09-14T22:50:31.007Z,18.30
2018-09-14T22:52:59.480Z,18.20
2018-09-14T22:55:27.964Z,18.20
2018-09-14T22:57:56.652Z,18.20
2018-09-14T23:00:30.303Z,18.20
2018-09-14T23:02:58.984Z,18.10
2018-09-14T23:05:27.449Z,18.10
2018-09-14T23:07:55.924Z,18.10
2018-09-14T23:10:24.516Z,18.10
2018-09-14T23:12:53.105Z,18.10
2018-09-14T23:15:21.585Z,18.10
2018-09-14T23:17:50.247Z,18.10
2018-09-14T23:20:18.681Z,18.00
2018-09-14T23:22:47.230Z,18.00
2018-09-14T23:25:15.928Z,18.00
2018-09-14T23:27:44.481Z,18.00
2018-09-14T23:30:12.915Z,17.90
2018-09-14T23:32:41.389Z,17.90
2018-09-14T23:35:09.804Z,17.90
2018-09-14T23:37:38.288Z,17.90
2018-09-14T23:40:06.780Z,17.90
2018-09-14T23:42:35.296Z,17.80
2018-09-14T23:45:03.738Z,17.80
2018-09-14T23:47:32.196Z,17.80
2018-09-14T23:50:00.658Z,17.70
2018-09-14T23:52:29.073Z,17.70
2018-09-14T23:54:57.561Z,17.70
2018-09-14T23:57:26.066Z,17.70
2018-09-14T23:59:54.490Z,17.60
